Time;durP1;ratioP1;P1;durP2;ratioP2;P2;SDS_P1;SDS_P2;PMS_P1;PMS_P2;Temp;Humidity;BMP_temperature;BMP_pressure;BME280_temperature;BME280_humidity;BME280_pressure;Samples;Min_cycle;Max_cycle;Signal;HPM_P1;HPM_P2
2022/10/24 00:02:21;;;;;;;13.38;2.33;;;;;;;-143.48;81.77;77508.50;4995388;28;20065;-70
2022/10/24 00:04:47;;;;;;;10.48;2.50;;;;;;;-143.48;81.73;77504.53;5011505;28;20033;-71
2022/10/24 00:07:12;;;;;;;9.70;2.60;;;;;;;-143.48;81.89;77502.56;4995373;28;20033;-70
2022/10/24 00:09:38;;;;;;;11.68;2.60;;;;;;;-143.48;81.67;77492.66;5013942;28;20443;-70
2022/10/24 00:12:05;;;;;;;10.48;2.20;;;;;;;-143.48;81.02;77478.78;5016547;28;20358;-71
2022/10/24 00:14:30;;;;;;;11.50;2.28;;;;;;;-143.48;81.04;77480.75;5016506;28;20032;-73
2022/10/24 00:16:55;;;;;;;8.68;2.35;;;;;;;-143.48;81.17;77478.78;5016467;28;20030;-72
2022/10/24 00:19:21;;;;;;;11.32;2.28;;;;;;;-143.48;81.61;77480.75;5016376;28;20022;-72
2022/10/24 00:21:46;;;;;;;7.50;2.08;;;;;;;-143.48;82.00;77482.75;4998782;28;20546;-72
2022/10/24 00:24:12;;;;;;;7.82;2.60;;;;;;;-143.48;82.05;77478.78;5016410;28;20083;-72
2022/10/24 00:26:37;;;;;;;7.32;2.72;;;;;;;-143.48;81.77;77470.84;5016255;28;20079;-71
2022/10/24 00:29:03;;;;;;;14.38;3.00;;;;;;;-143.48;80.65;77458.94;5016192;28;20052;-71
2022/10/24 00:31:29;;;;;;;8.07;2.63;;;;;;;-143.48;80.78;77462.91;5016208;28;20072;-71
2022/10/24 00:33:58;;;;;;;10.10;2.33;;;;;;;-143.48;80.95;77462.91;5016109;28;20112;-71
2022/10/24 00:36:25;;;;;;;8.32;2.65;;;;;;;-143.48;79.69;77441.09;5016203;28;20428;-72
2022/10/24 00:38:51;;;;;;;8.38;2.33;;;;;;;-143.48;79.47;77445.06;5016149;28;20392;-71
2022/10/24 00:41:35;;;;;;;10.95;2.50;;;;;;;-143.48;79.10;77441.09;5016033;28;20215;-71
2022/10/24 00:44:31;;;;;;;9.65;2.65;;;;;;;-143.48;78.94;77433.16;5015930;28;20037;-70
2022/10/24 00:47:02;;;;;;;10.80;2.60;;;;;;;-143.48;78.76;77429.19;5011616;28;20038;-72
2022/10/24 00:49:48;;;;;;;10.45;2.83;;;;;;;-143.48;78.66;77423.25;5015687;28;20034;-71
2022/10/24 00:52:19;;;;;;;7.90;2.63;;;;;;;-143.48;77.83;77429.19;5015916;28;20033;-70
2022/10/24 00:54:45;;;;;;;15.15;2.45;;;;;;;-143.48;77.93;77421.28;5015636;28;20033;-71
2022/10/24 00:57:23;;;;;;;13.38;2.75;;;;;;;-143.48;76.76;77403.44;5015743;28;20442;-70
2022/10/24 00:59:54;;;;;;;12.23;2.47;;;;;;;-143.48;75.85;77399.47;5015687;28;20024;-71
2022/10/24 01:02:20;;;;;;;10.43;2.70;;;;;;;-143.48;75.43;77395.50;5015588;28;20097;-73
2022/10/24 01:04:47;;;;;;;11.63;2.42;;;;;;;-143.48;75.49;77395.50;5015558;28;20022;-73
2022/10/24 01:07:22;;;;;;;12.75;3.03;;;;;;;-143.48;75.05;77387.56;5015588;28;20072;-71
2022/10/24 01:10:02;;;;;;;10.48;2.28;;;;;;;-143.48;75.12;77393.50;5015337;28;20026;-71
2022/10/24 01:12:49;;;;;;;13.35;2.33;;;;;;;-143.48;74.93;77405.41;5015366;28;20033;-71
2022/10/24 01:15:33;;;;;;;8.35;2.05;;;;;;;-143.48;74.25;77387.56;5015244;28;20076;-72
2022/10/24 01:18:23;;;;;;;8.50;2.22;;;;;;;-143.48;73.92;77385.59;5015412;28;20054;-71
2022/10/24 01:21:12;;;;;;;11.48;1.90;;;;;;;-143.48;73.54;77375.66;5015116;28;20415;-72
2022/10/24 01:23:58;;;;;;;14.93;2.38;;;;;;;-143.48;73.56;77383.59;5015319;28;20030;-72
2022/10/24 01:26:54;;;;;;;9.27;2.25;;;;;;;-143.48;73.07;77377.66;5015165;28;20057;-72
2022/10/24 01:29:42;;;;;;;7.95;1.88;;;;;;;-143.48;72.17;77373.69;4997168;28;20030;-72
2022/10/24 01:32:30;;;;;;;8.55;2.10;;;;;;;-143.48;71.83;77373.69;5015025;28;20029;-71
2022/10/24 01:35:10;;;;;;;7.80;1.98;;;;;;;-143.48;71.25;77367.75;5014980;28;20029;-72
2022/10/24 01:38:04;;;;;;;9.48;1.92;;;;;;;-143.48;70.55;77365.75;4997232;28;20049;-72
2022/10/24 01:40:35;;;;;;;14.18;2.38;;;;;;;-143.48;70.43;77355.84;5014786;28;20105;-71
2022/10/24 01:43:08;;;;;;;7.55;2.20;;;;;;;-143.48;70.33;77361.78;5014773;28;20029;-72
2022/10/24 01:45:36;;;;;;;7.15;2.22;;;;;;;-143.48;70.45;77373.69;5014911;28;20517;-71
2022/10/24 01:48:06;;;;;;;9.27;2.30;;;;;;;-143.48;70.63;77369.72;5013384;28;20018;-72
2022/10/24 01:50:35;;;;;;;7.32;2.00;;;;;;;-143.48;70.92;77379.63;5013278;28;20054;-71
2022/10/24 01:53:01;;;;;;;5.57;1.90;;;;;;;-143.48;70.21;77369.72;5014457;28;20108;-72
2022/10/24 01:55:27;;;;;;;14.38;2.35;;;;;;;-143.48;69.78;77357.81;5014561;28;20124;-71
2022/10/24 01:57:52;;;;;;;5.45;1.90;;;;;;;-143.48;70.06;77365.75;5014514;28;20116;-71
2022/10/24 02:00:20;;;;;;;10.00;2.22;;;;;;;-143.48;69.76;77355.84;5014582;28;20160;-71
2022/10/24 02:02:52;;;;;;;9.70;2.10;;;;;;;-143.48;69.77;77355.84;5014404;28;20384;-71
2022/10/24 02:05:25;;;;;;;10.65;2.13;;;;;;;-143.48;69.29;77349.91;4996881;28;20033;-71
2022/10/24 02:07:55;;;;;;;9.07;2.10;;;;;;;-143.48;69.51;77343.94;4996802;28;20022;-71
2022/10/24 02:10:30;;;;;;;8.13;2.45;;;;;;;-143.48;69.47;77357.81;4996730;28;20091;-72
2022/10/24 02:13:04;;;;;;;8.80;2.30;;;;;;;-143.48;69.06;77349.91;5014329;28;20041;-71
2022/10/24 02:15:34;;;;;;;13.65;2.28;;;;;;;-143.48;68.53;77345.94;4996503;28;20033;-71
2022/10/24 02:18:00;;;;;;;12.20;2.28;;;;;;;-143.48;68.75;77345.94;5014258;28;20022;-71
2022/10/24 02:20:35;;;;;;;8.50;2.17;;;;;;;-143.48;68.88;77345.94;5014288;28;20108;-72
2022/10/24 02:23:20;;;;;;;8.90;2.28;;;;;;;-143.48;68.42;77345.94;5014083;28;20029;-72
2022/10/24 02:25:50;;;;;;;8.57;2.30;;;;;;;-143.48;68.48;77357.81;5014062;28;20436;-70
2022/10/24 02:28:20;;;;;;;9.80;2.30;;;;;;;-143.48;68.51;77359.81;5014169;28;20030;-71
2022/10/24 02:31:10;;;;;;;11.88;2.10;;;;;;;-143.48;68.80;77365.75;5014103;28;20032;-71
2022/10/24 02:33:39;;;;;;;11.18;2.20;;;;;;;-143.48;68.60;77363.78;5013371;28;20026;-71
2022/10/24 02:36:07;;;;;;;7.95;1.77;;;;;;;-143.48;68.39;77367.75;5013949;28;20025;-71
2022/10/24 02:38:37;;;;;;;4.75;2.25;;;;;;;-143.48;68.72;77377.66;5013700;28;20128;-72
2022/10/24 02:41:07;;;;;;;6.90;2.25;;;;;;;-143.48;68.37;77365.75;5013854;28;20022;-70
2022/10/24 02:43:34;;;;;;;9.50;2.33;;;;;;;-143.48;68.65;77385.59;5012607;28;20022;-71
2022/10/24 02:46:01;;;;;;;9.60;2.15;;;;;;;-143.48;69.20;77387.56;5013715;28;20049;-72
2022/10/24 02:48:33;;;;;;;8.13;2.25;;;;;;;-143.48;68.51;77385.59;5013664;28;20033;-71
2022/10/24 02:50:59;;;;;;;13.68;2.30;;;;;;;-143.48;68.17;77385.59;5013670;28;20500;-71
2022/10/24 02:53:25;;;;;;;5.40;2.00;;;;;;;-143.48;68.25;77389.53;5013579;28;20473;-72
2022/10/24 02:55:51;;;;;;;8.05;2.10;;;;;;;-143.48;68.21;77387.56;5013557;28;20106;-71
2022/10/24 02:58:16;;;;;;;8.38;2.28;;;;;;;-143.48;67.54;77381.63;5013648;28;20021;-71
2022/10/24 03:00:42;;;;;;;7.72;2.05;;;;;;;-143.48;67.00;77367.75;4995983;28;20430;-71
2022/10/24 03:03:07;;;;;;;8.85;2.03;;;;;;;-143.48;67.13;77375.66;5012192;28;20049;-72
2022/10/24 03:05:33;;;;;;;7.20;2.10;;;;;;;-143.48;66.72;77369.72;5013523;28;20029;-71
2022/10/24 03:07:58;;;;;;;9.82;1.92;;;;;;;-143.48;66.59;77373.69;5013550;28;20029;-72
2022/10/24 03:10:23;;;;;;;9.50;1.98;;;;;;;-143.48;66.49;77367.75;5013366;28;20029;-72
2022/10/24 03:12:49;;;;;;;5.45;1.92;;;;;;;-143.48;66.62;77381.63;5013613;28;20075;-72
2022/10/24 03:15:14;;;;;;;7.15;2.15;;;;;;;-143.48;66.19;77371.69;4995706;28;20025;-72
2022/10/24 03:17:39;;;;;;;13.18;2.20;;;;;;;-143.48;66.35;77383.59;5013369;28;20026;-73
2022/10/24 03:20:05;;;;;;;7.40;2.28;;;;;;;-143.48;65.86;77379.63;4995751;28;20057;-71
2022/10/24 03:22:30;;;;;;;6.32;1.80;;;;;;;-143.48;65.40;77371.69;5013554;28;20075;-72
2022/10/24 03:24:55;;;;;;;7.85;2.03;;;;;;;-143.48;64.87;77361.78;5013267;28;20022;-71
2022/10/24 03:27:22;;;;;;;8.57;2.00;;;;;;;-143.48;64.85;77361.78;4995630;28;20109;-71
2022/10/24 03:29:47;;;;;;;8.77;1.92;;;;;;;-143.48;64.83;77363.78;5013170;28;20123;-71
2022/10/24 03:32:12;;;;;;;11.65;2.30;;;;;;;-143.48;65.00;77363.78;5013326;28;20115;-71
2022/10/24 03:34:38;;;;;;;5.45;1.95;;;;;;;-143.48;64.79;77367.75;5013243;28;20030;-72
2022/10/24 03:37:03;;;;;;;4.65;1.92;;;;;;;-143.48;65.58;77389.53;5012055;28;20029;-71
2022/10/24 03:39:28;;;;;;;6.03;1.77;;;;;;;-143.48;65.42;77393.50;4995575;28;20084;-71
2022/10/24 03:41:54;;;;;;;11.43;1.85;;;;;;;-143.48;65.37;77391.53;5013170;28;20363;-71
2022/10/24 03:44:19;;;;;;;7.82;1.90;;;;;;;-143.48;65.32;77407.38;5015348;28;20033;-70
2022/10/24 03:46:44;;;;;;;10.75;2.22;;;;;;;-143.48;64.94;77393.50;4999457;28;20112;-71
2022/10/24 03:49:09;;;;;;;5.47;1.85;;;;;;;-143.48;65.26;77411.34;4999240;28;20041;-70
2022/10/24 03:51:35;;;;;;;8.52;1.63;;;;;;;-143.48;64.54;77389.53;4999160;28;20045;-71
2022/10/24 03:54:00;;;;;;;8.27;2.03;;;;;;;-143.48;64.69;77395.50;5016931;28;20029;-71
2022/10/24 03:56:25;;;;;;;6.55;1.60;;;;;;;-143.48;63.75;77389.53;5016972;28;20030;-71
2022/10/24 03:58:51;;;;;;;10.15;1.83;;;;;;;-143.48;62.45;77363.78;4999583;28;20049;-71
2022/10/24 04:01:17;;;;;;;7.53;1.67;;;;;;;-143.48;63.05;77381.63;4999391;28;20516;-72
2022/10/24 04:03:43;;;;;;;8.75;1.58;;;;;;;-143.48;62.81;77385.59;5016792;28;20030;-72
2022/10/24 04:06:09;;;;;;;8.95;1.70;;;;;;;-143.48;62.67;77393.50;5016624;28;20022;-71
2022/10/24 04:08:34;;;;;;;10.07;1.60;;;;;;;-143.48;61.62;77367.75;5016620;28;20428;-72
2022/10/24 04:10:59;;;;;;;6.10;1.50;;;;;;;-143.48;61.63;77361.78;5016727;28;20072;-70
2022/10/24 04:13:25;;;;;;;6.32;1.80;;;;;;;-143.48;61.83;77363.78;4999016;28;20080;-70
2022/10/24 04:15:50;;;;;;;8.35;1.90;;;;;;;-143.48;61.65;77369.72;5016467;28;20036;-70
2022/10/24 04:18:15;;;;;;;14.38;1.88;;;;;;;-143.48;61.26;77357.81;5016741;28;20385;-70
2022/10/24 04:20:41;;;;;;;9.77;1.60;;;;;;;-143.48;61.98;77373.69;4998849;28;20026;-71
2022/10/24 04:23:06;;;;;;;9.95;1.65;;;;;;;-143.48;61.40;77367.75;5016450;28;20021;-71
2022/10/24 04:25:31;;;;;;;9.05;1.80;;;;;;;-143.48;61.62;77365.75;5016269;28;20570;-71
2022/10/24 04:27:57;;;;;;;7.38;1.80;;;;;;;-143.48;62.11;77371.69;5016253;28;20397;-71
2022/10/24 04:30:22;;;;;;;8.25;1.30;;;;;;;-143.48;61.71;77365.75;5016286;28;20025;-72
2022/10/24 04:32:47;;;;;;;9.18;1.60;;;;;;;-143.48;61.40;77357.81;5015074;28;20021;-71
2022/10/24 04:35:13;;;;;;;6.70;1.58;;;;;;;-143.48;61.15;77359.81;5016064;28;20025;-71
2022/10/24 04:37:38;;;;;;;16.13;2.08;;;;;;;-143.48;61.37;77361.78;5016030;28;20026;-71
2022/10/24 04:40:04;;;;;;;10.10;1.70;;;;;;;-143.48;61.10;77349.91;5016194;28;20026;-71
2022/10/24 04:42:29;;;;;;;9.07;1.75;;;;;;;-143.48;61.12;77353.84;5014671;28;20107;-71
2022/10/24 04:44:55;;;;;;;9.27;1.60;;;;;;;-143.48;61.10;77349.91;5016077;28;20029;-71
2022/10/24 04:47:20;;;;;;;7.90;1.70;;;;;;;-143.48;60.96;77330.06;5015889;28;20053;-71
2022/10/24 04:49:45;;;;;;;9.65;1.48;;;;;;;-143.48;61.24;77343.94;5015680;28;20026;-72
2022/10/24 04:52:11;;;;;;;8.07;1.45;;;;;;;-143.48;60.95;77338.00;5015812;28;20045;-72
2022/10/24 04:54:36;;;;;;;6.78;1.50;;;;;;;-143.48;61.30;77345.94;5014207;28;20033;-71
2022/10/24 04:57:01;;;;;;;5.70;1.40;;;;;;;-143.48;61.21;77336.00;5015186;28;20028;-70
2022/10/24 04:59:27;;;;;;;8.75;1.60;;;;;;;-143.48;60.89;77339.97;5014322;28;20389;-71
2022/10/24 05:01:53;;;;;;;9.27;1.60;;;;;;;-143.48;60.86;77334.03;5015655;28;20076;-71
2022/10/24 05:04:19;;;;;;;18.88;1.40;;;;;;;-143.48;59.98;77324.13;5015668;28;20026;-71
2022/10/24 05:06:45;;;;;;;9.38;1.50;;;;;;;-143.48;60.51;77326.09;4997906;28;20442;-71
2022/10/24 05:09:10;;;;;;;12.63;1.73;;;;;;;-143.48;60.32;77328.09;5015335;28;20133;-71
2022/10/24 05:11:35;;;;;;;7.38;1.55;;;;;;;-143.48;60.77;77330.06;5015526;28;20026;-71
2022/10/24 05:14:01;;;;;;;4.30;1.23;;;;;;;-143.48;60.81;77328.09;4997766;28;20036;-71
2022/10/24 05:16:26;;;;;;;6.72;1.20;;;;;;;-143.48;60.64;77328.09;5015462;28;20072;-71
2022/10/24 05:18:52;;;;;;;5.38;1.10;;;;;;;-143.48;60.38;77322.13;5015242;28;20064;-71
2022/10/24 05:21:17;;;;;;;10.38;1.60;;;;;;;-143.48;60.96;77324.13;5015324;28;20041;-71
2022/10/24 05:23:42;;;;;;;7.72;1.40;;;;;;;-143.48;61.09;77334.03;5015254;28;20052;-71
2022/10/24 05:26:08;;;;;;;5.72;1.40;;;;;;;-143.48;61.05;77320.16;4997616;28;20389;-71
2022/10/24 05:28:34;;;;;;;7.03;1.10;;;;;;;-143.48;61.26;77332.03;4997559;28;20026;-71
2022/10/24 05:30:59;;;;;;;12.85;1.40;;;;;;;-143.48;61.22;77326.09;5015071;28;20080;-70
2022/10/24 05:33:25;;;;;;;9.50;1.50;;;;;;;-143.48;61.71;77345.94;5015097;28;20032;-70
2022/10/24 05:35:51;;;;;;;10.68;1.55;;;;;;;-143.48;61.63;77336.00;5015054;28;20079;-71
2022/10/24 05:38:17;;;;;;;6.05;1.10;;;;;;;-143.48;61.87;77336.00;5014991;28;20389;-71
2022/10/24 05:40:42;;;;;;;8.68;1.48;;;;;;;-143.48;61.42;77328.09;5014878;28;20026;-71
2022/10/24 05:43:08;;;;;;;12.32;1.58;;;;;;;-143.48;61.51;77326.09;5013504;28;20025;-71
2022/10/24 05:45:33;;;;;;;11.32;1.83;;;;;;;-143.48;61.95;77334.03;5015116;28;20032;-71
2022/10/24 05:47:59;;;;;;;8.43;1.17;;;;;;;-143.48;61.67;77332.03;5014666;28;20336;-70
2022/10/24 05:50:25;;;;;;;5.50;1.50;;;;;;;-143.48;62.31;77339.97;5014665;28;20592;-71
2022/10/24 05:52:51;;;;;;;12.23;1.60;;;;;;;-143.48;62.32;77341.97;4996997;28;20393;-71
2022/10/24 05:55:16;;;;;;;12.60;1.52;;;;;;;-143.48;62.12;77339.97;5014670;28;20141;-71
2022/10/24 05:57:42;;;;;;;12.95;1.50;;;;;;;-143.48;62.56;77341.97;5014668;28;20037;-71
2022/10/24 06:00:11;;;;;;;10.23;1.65;;;;;;;-143.48;62.78;77351.88;4997024;28;20030;-71
2022/10/24 06:02:36;;;;;;;7.07;1.42;;;;;;;-143.48;62.38;77343.94;5014602;28;20129;-71
2022/10/24 06:05:01;;;;;;;6.97;1.30;;;;;;;-143.48;62.30;77345.94;4996653;28;20049;-70
2022/10/24 06:07:27;;;;;;;6.10;1.40;;;;;;;-143.48;63.00;77353.84;5013773;28;20030;-70
2022/10/24 06:09:52;;;;;;;5.93;1.63;;;;;;;-143.48;62.15;77339.97;5014230;28;20120;-72
2022/10/24 06:12:17;;;;;;;10.13;1.70;;;;;;;-143.48;62.26;77353.84;5014292;28;20033;-72
2022/10/24 06:14:43;;;;;;;10.35;1.58;;;;;;;-143.48;62.42;77347.91;4996948;28;20477;-72
2022/10/24 06:17:10;;;;;;;11.50;1.50;;;;;;;-143.48;62.76;77361.78;5014455;28;20022;-71
2022/10/24 06:19:37;;;;;;;9.00;1.45;;;;;;;-143.48;62.29;77357.81;4996629;28;20105;-71
2022/10/24 06:22:03;;;;;;;11.82;1.58;;;;;;;-143.48;62.08;77349.91;5014140;28;20554;-71
2022/10/24 06:24:28;;;;;;;8.00;1.35;;;;;;;-143.48;61.77;77347.91;5014117;28;20101;-71
2022/10/24 06:26:54;;;;;;;8.48;1.23;;;;;;;-143.48;61.98;77336.00;5014055;28;20123;-71
2022/10/24 06:29:19;;;;;;;6.97;2.00;;;;;;;-143.48;61.56;77338.00;5014062;28;20022;-71
2022/10/24 06:31:44;;;;;;;8.70;1.40;;;;;;;-143.48;61.88;77347.91;5013943;28;20025;-72
2022/10/24 06:34:10;;;;;;;5.32;1.27;;;;;;;-143.48;61.74;77341.97;5013973;28;20492;-71
2022/10/24 06:36:36;;;;;;;10.75;1.83;;;;;;;-143.48;61.50;77324.13;5013935;28;20065;-71
2022/10/24 06:39:01;;;;;;;13.93;1.70;;;;;;;-143.48;61.15;77326.09;5014056;28;20392;-71
2022/10/24 06:41:27;;;;;;;8.20;1.40;;;;;;;-143.48;61.38;77332.03;5013887;28;20100;-72
2022/10/24 06:43:55;;;;;;;6.82;1.60;;;;;;;-143.48;61.53;77345.94;5013795;28;20053;-70
2022/10/24 06:46:22;;;;;;;4.97;1.38;;;;;;;-143.48;61.41;77345.94;5013843;28;20030;-71
2022/10/24 06:48:48;;;;;;;9.38;1.95;;;;;;;-143.48;61.19;77341.97;5012599;28;20030;-71
2022/10/24 06:51:14;;;;;;;7.85;1.50;;;;;;;-143.48;61.17;77343.94;4996122;28;20045;-71
2022/10/24 06:53:40;;;;;;;10.75;1.73;;;;;;;-143.48;61.11;77343.94;5012393;28;20025;-71
2022/10/24 06:56:06;;;;;;;7.93;1.50;;;;;;;-143.48;60.93;77334.03;5013710;28;20025;-71
2022/10/24 06:58:36;;;;;;;7.28;1.17;;;;;;;-143.48;60.69;77332.03;5013725;28;20029;-71
2022/10/24 07:01:16;;;;;;;9.80;1.60;;;;;;;-143.48;60.88;77339.97;5013802;28;20374;-72
2022/10/24 07:03:42;;;;;;;8.95;1.80;;;;;;;-143.48;60.62;77343.94;5014297;28;20037;-72
2022/10/24 07:06:10;;;;;;;11.30;1.50;;;;;;;-143.48;60.40;77339.97;5015614;28;20029;-72
2022/10/24 07:08:35;;;;;;;13.73;1.80;;;;;;;-143.48;60.81;77349.91;5014953;28;20489;-71
2022/10/24 07:11:01;;;;;;;9.82;1.38;;;;;;;-143.48;60.61;77349.91;5015415;28;20068;-73
2022/10/24 07:13:26;;;;;;;10.63;1.65;;;;;;;-143.48;60.88;77343.94;5015458;28;20068;-72
2022/10/24 07:15:54;;;;;;;8.13;1.55;;;;;;;-143.48;60.75;77345.94;5015824;28;20489;-72
2022/10/24 07:18:20;;;;;;;8.13;1.60;;;;;;;-143.48;61.49;77371.69;5014032;28;20018;-70
2022/10/24 07:20:45;;;;;;;8.95;1.73;;;;;;;-143.48;60.94;77367.75;5015970;28;20026;-72
2022/10/24 07:23:10;;;;;;;11.32;1.77;;;;;;;-143.48;61.31;77363.78;5015732;28;20049;-73
2022/10/24 07:25:39;;;;;;;11.77;1.70;;;;;;;-143.48;61.15;77375.66;5016290;28;20022;-73
2022/10/24 07:28:06;;;;;;;9.75;1.73;;;;;;;-143.48;61.63;77381.63;5015659;28;20041;-76
2022/10/24 07:30:32;;;;;;;15.77;1.50;;;;;;;-143.48;61.82;77385.59;5024489;28;20026;-73
2022/10/24 07:32:57;;;;;;;12.55;1.70;;;;;;;-143.48;62.20;77387.56;5024788;28;20041;-73
2022/10/24 07:35:23;;;;;;;8.90;1.42;;;;;;;-143.48;62.62;77405.41;5007462;28;20337;-72
2022/10/24 07:37:48;;;;;;;9.98;1.55;;;;;;;-143.48;62.52;77405.41;5023720;28;20033;-71
2022/10/24 07:40:14;;;;;;;9.90;1.67;;;;;;;-143.48;63.05;77397.47;5023622;28;20026;-76
2022/10/24 07:42:40;;;;;;;11.48;1.98;;;;;;;-143.48;63.16;77407.38;5025227;28;20025;-75
2022/10/24 07:45:06;;;;;;;7.13;1.48;;;;;;;-143.48;63.23;77405.41;5007639;28;20025;-73
2022/10/24 07:47:32;;;;;;;9.95;1.65;;;;;;;-143.48;63.64;77401.44;5022905;28;20409;-76
2022/10/24 07:49:57;;;;;;;9.85;1.42;;;;;;;-143.48;62.92;77393.50;5016035;28;20054;-72
2022/10/24 07:52:23;;;;;;;10.40;2.10;;;;;;;-143.48;63.29;77405.41;5016808;28;20128;-72
2022/10/24 07:54:48;;;;;;;11.23;2.15;;;;;;;-143.48;63.51;77417.31;5016805;28;20060;-73
2022/10/24 07:57:14;;;;;;;10.38;1.73;;;;;;;-143.48;63.82;77431.19;4998415;28;20405;-75
2022/10/24 07:59:39;;;;;;;11.15;1.67;;;;;;;-143.48;64.94;77441.09;5016156;28;20058;-73
2022/10/24 08:02:04;;;;;;;12.85;1.92;;;;;;;-143.48;66.20;77447.03;5015105;28;20030;-74
2022/10/24 08:04:30;;;;;;;15.23;1.90;;;;;;;-143.48;64.82;77437.13;5013003;28;20064;-72
2022/10/24 08:06:56;;;;;;;14.27;1.70;;;;;;;-143.48;65.06;77421.28;5013965;28;20157;-72
2022/10/24 08:09:21;;;;;;;12.15;1.95;;;;;;;-143.48;64.38;77443.09;5013972;28;20022;-72
2022/10/24 08:11:46;;;;;;;12.98;2.05;;;;;;;-143.48;64.80;77453.00;4995814;28;20513;-73
2022/10/24 08:14:12;;;;;;;13.48;1.65;;;;;;;-143.48;65.69;77466.88;5012881;28;20113;-72
2022/10/24 08:16:37;;;;;;;11.20;1.67;;;;;;;-143.48;66.13;77486.69;5013081;28;20034;-72
2022/10/24 08:19:03;;;;;;;7.88;1.52;;;;;;;-143.48;65.97;77476.78;5013010;28;20112;-72
2022/10/24 08:21:30;;;;;;;11.23;2.13;;;;;;;-143.48;66.73;77478.78;5012695;28;20026;-72
2022/10/24 08:23:55;;;;;;;11.50;1.83;;;;;;;-143.48;66.91;77472.81;4995002;28;20038;-72
2022/10/24 08:26:23;;;;;;;10.10;1.67;;;;;;;-143.48;67.42;77484.72;5012892;28;20097;-72
2022/10/24 08:28:49;;;;;;;9.23;1.60;;;;;;;-143.48;67.80;77482.75;5012652;28;20050;-72
2022/10/24 08:31:17;;;;;;;9.25;1.83;;;;;;;-143.48;65.81;77421.28;5014795;28;20022;-71
2022/10/24 08:33:42;;;;;;;7.30;1.70;;;;;;;-143.48;64.25;77411.34;5016422;28;20060;-73
2022/10/24 08:36:18;;;;;;;7.57;1.92;;;;;;;-143.48;59.79;77272.56;4998533;28;20026;-71
2022/10/24 08:38:43;;;;;;;11.82;1.90;;;;;;;-143.48;56.43;77171.44;5015897;28;20477;-72
2022/10/24 08:41:17;;;;;;;11.20;1.63;;;;;;;-143.48;61.15;77334.03;5015995;28;20028;-71
2022/10/24 08:43:43;;;;;;;9.77;1.67;;;;;;;-143.48;62.35;77351.88;5016049;28;20068;-71
2022/10/24 08:46:14;;;;;;;11.57;1.92;;;;;;;-143.48;61.74;77347.91;5015965;28;20022;-70
2022/10/24 08:48:54;;;;;;;10.48;1.75;;;;;;;-143.48;63.53;77391.53;5015776;28;20034;-71
2022/10/24 08:51:40;;;;;;;10.02;1.67;;;;;;;-143.48;63.40;77399.47;5015700;28;20070;-70
2022/10/24 08:54:13;;;;;;;5.13;1.77;;;;;;;-143.48;63.50;77405.41;5015752;28;20021;-70
2022/10/24 08:56:39;;;;;;;7.25;1.38;;;;;;;-143.48;63.50;77381.63;4998284;28;20045;-70
2022/10/24 08:59:05;;;;;;;6.68;2.00;;;;;;;-143.48;64.31;77409.38;5015845;28;20060;-71
2022/10/24 09:01:45;;;;;;;7.57;1.60;;;;;;;-143.48;60.13;77217.06;4997877;28;20029;-71
2022/10/24 09:04:15;;;;;;;9.25;1.77;;;;;;;-143.48;61.13;77274.56;5015486;28;20450;-72
2022/10/24 09:06:40;;;;;;;7.45;1.70;;;;;;;-143.48;59.31;77215.06;5015585;28;20041;-72
2022/10/24 09:09:28;;;;;;;6.90;1.58;;;;;;;-143.48;60.23;77244.81;5015521;28;20034;-71
2022/10/24 09:12:10;;;;;;;11.45;2.00;;;;;;;-143.48;54.20;77024.75;5015388;28;20026;-72
2022/10/24 09:14:37;;;;;;;6.63;1.65;;;;;;;-143.48;61.45;77326.09;5015607;28;20057;-72
2022/10/24 09:17:15;;;;;;;10.48;1.90;;;;;;;-143.48;64.07;77429.19;5015495;28;20437;-72
2022/10/24 09:19:53;;;;;;;10.02;1.73;;;;;;;-143.48;64.88;77431.19;4997719;28;20026;-71
2022/10/24 09:22:21;;;;;;;8.43;1.80;;;;;;;-143.48;65.45;77439.13;5015228;28;20092;-72
2022/10/24 09:24:59;;;;;;;8.82;1.80;;;;;;;-143.48;63.88;77399.47;5015310;28;20056;-72
2022/10/24 09:27:29;;;;;;;9.20;1.95;;;;;;;-143.48;60.99;77312.22;5015199;28;20100;-71
2022/10/24 09:29:57;;;;;;;7.35;1.65;;;;;;;-143.48;55.53;77111.97;5015075;28;20029;-72
2022/10/24 09:32:26;;;;;;;6.78;1.45;;;;;;;-143.48;59.26;77296.34;4997547;28;20026;-71
2022/10/24 09:34:53;;;;;;;9.45;2.15;;;;;;;-143.48;57.41;77193.25;5015072;28;20527;-72
2022/10/24 09:37:28;;;;;;;6.13;1.33;;;;;;;-143.48;60.41;77326.09;5014435;28;20033;-71
2022/10/24 09:40:10;;;;;;;7.82;1.98;;;;;;;-143.48;58.73;77288.44;5014084;28;20492;-71
2022/10/24 09:42:37;;;;;;;5.78;1.58;;;;;;;-143.48;51.58;76967.25;5014603;28;20468;-72
2022/10/24 09:45:18;;;;;;;6.85;1.45;;;;;;;-143.48;48.34;76808.66;5014653;28;20034;-72
2022/10/24 09:47:43;;;;;;;5.47;1.40;;;;;;;-143.48;45.94;76646.09;5014960;28;20080;-72
2022/10/24 09:50:20;;;;;;;11.27;1.92;;;;;;;-143.48;44.50;76671.88;5014255;28;20038;-72
2022/10/24 09:52:49;;;;;;;9.07;2.40;;;;;;;-143.48;43.79;76652.03;5014397;28;20048;-72
2022/10/24 09:55:23;;;;;;;7.35;1.90;;;;;;;-143.48;41.12;76428.03;5014105;28;20099;-72
2022/10/24 09:57:53;;;;;;;8.65;1.65;;;;;;;-143.48;49.31;76985.09;5014639;28;20112;-72
2022/10/24 10:00:35;;;;;;;7.97;1.80;;;;;;;-143.48;50.45;77076.28;5014719;28;20033;-71
2022/10/24 10:03:30;;;;;;;11.02;1.70;;;;;;;-143.48;46.28;76810.63;5014707;28;20049;-72
2022/10/24 10:06:00;;;;;;;6.38;1.60;;;;;;;-143.48;43.00;76588.59;5009860;28;20046;-72
2022/10/24 10:08:34;;;;;;;6.32;1.50;;;;;;;-143.48;43.20;76648.06;4996736;28;20037;-72
2022/10/24 10:11:08;;;;;;;8.38;1.88;;;;;;;-143.48;44.63;76761.06;5014884;28;20095;-72
2022/10/24 10:13:54;;;;;;;6.13;1.52;;;;;;;-143.48;41.18;76501.38;4996743;28;20026;-72
2022/10/24 10:16:29;;;;;;;6.88;1.70;;;;;;;-143.48;44.96;76836.41;5012763;28;20045;-71
2022/10/24 10:19:15;;;;;;;7.63;1.83;;;;;;;-143.48;42.24;76634.19;5014297;28;20065;-71
2022/10/24 10:21:56;;;;;;;13.23;1.88;;;;;;;-143.48;44.88;76774.94;5012973;28;20072;-71
2022/10/24 10:24:36;;;;;;;5.10;1.63;;;;;;;-143.48;46.24;76887.94;5012704;28;20022;-71
2022/10/24 10:27:24;;;;;;;9.90;1.98;;;;;;;-143.48;45.40;76780.91;5014229;28;20026;-71
2022/10/24 10:30:13;;;;;;;8.48;1.83;;;;;;;-143.48;42.12;76628.25;4996591;28;20032;-71
2022/10/24 10:33:00;;;;;;;7.97;1.73;;;;;;;-143.48;42.17;76632.22;5014671;28;20092;-71
2022/10/24 10:35:50;;;;;;;9.55;1.92;;;;;;;-143.48;47.54;77000.94;5013938;28;20101;-71
2022/10/24 10:38:21;;;;;;;7.30;1.77;;;;;;;-143.48;44.40;76784.88;5019988;28;20026;-71
2022/10/24 10:40:56;;;;;;;8.27;1.90;;;;;;;-143.48;41.55;76610.41;5021992;28;20026;-71
2022/10/24 10:43:33;;;;;;;7.60;1.63;;;;;;;-143.48;46.68;76923.63;5015080;28;20444;-72
2022/10/24 10:46:22;;;;;;;7.60;1.55;;;;;;;-143.48;45.57;76856.22;5014687;28;20030;-71
2022/10/24 10:48:58;;;;;;;9.45;1.55;;;;;;;-143.48;51.88;77201.19;5014818;28;20022;-71
2022/10/24 10:51:54;;;;;;;8.15;2.00;;;;;;;-143.48;54.58;77288.44;4997174;28;20389;-72
2022/10/24 10:54:59;;;;;;;7.07;1.75;;;;;;;-143.48;53.62;77238.88;5013655;28;20057;-72
2022/10/24 10:57:48;;;;;;;7.38;1.65;;;;;;;-143.48;55.74;77326.09;5012798;28;20120;-70
2022/10/24 11:00:30;;;;;;;9.52;1.80;;;;;;;-143.48;57.03;77391.53;5014111;28;20022;-71
2022/10/24 11:03:07;;;;;;;8.25;1.60;;;;;;;-143.48;57.54;77403.44;5014111;28;20123;-72
2022/10/24 11:05:50;;;;;;;7.93;1.48;;;;;;;-143.48;58.06;77447.03;4996509;28;20434;-70
2022/10/24 11:08:34;;;;;;;9.00;1.63;;;;;;;-143.48;59.01;77468.84;5014510;28;20084;-71
2022/10/24 11:11:05;;;;;;;11.80;2.17;;;;;;;-143.48;56.81;77363.78;5013514;28;20025;-71
2022/10/24 11:13:37;;;;;;;11.75;1.90;;;;;;;-143.48;59.44;77454.97;5013842;28;20029;-71
2022/10/24 11:16:11;;;;;;;5.72;1.50;;;;;;;-143.48;58.61;77379.63;4996447;28;20462;-71
2022/10/24 11:18:41;;;;;;;7.53;1.38;;;;;;;-143.48;60.51;77476.78;5014200;28;20379;-71
2022/10/24 11:21:09;;;;;;;9.43;1.90;;;;;;;-143.48;60.83;77504.53;5013656;28;20033;-71
2022/10/24 11:23:59;;;;;;;6.65;1.58;;;;;;;-143.48;61.21;77524.38;5013898;28;20076;-72
2022/10/24 11:26:40;;;;;;;7.63;1.52;;;;;;;-143.48;60.22;77518.44;5013169;28;20036;-72
2022/10/24 11:29:18;;;;;;;4.85;1.13;;;;;;;-143.48;61.31;77520.41;5013874;28;20108;-72